Impacts TAF Board
For situational awareness. Not to be used for flight planning purposes.
IDs:

KTPA - Tampa Intl Arpt, FL, US

Issued at 1437 UTC 01 Mar 2021
Updated at 1730 UTC 01 Mar 2021
Potential Impact None Slight Moderate High
Time1653Z 01/18Z 01/19Z 01/20Z 01/21Z 01/22Z 01/23Z 02/00Z 02/01Z 02/02Z 02/03Z 02/04Z 02/05Z 02/06Z>>
Type OBS PRVL
  [TEMP]  
PRVL
  [TEMP]  
PRVL
  [TEMP]  
PRVL PRVL PRVL PRVL PRVL PRVL PRVL PRVL PRVL PRVL
VIS 10 >6 >6 >6 >6 >6 >6 >6 >6 >6 >6 >6 >6 >6
CIG -- --
  [40]  
--
  [40]  
--
  [40]  
-- -- -- -- -- -- -- -- -- --
Cover SCT SCT
  [BKN]  
SCT
  [BKN]  
SCT
  [BKN]  
SCT SCT SCT SCT SCT SCT SCT SCT SCT SCT
FltCat VFR VFR
  [VFR]  
VFR
  [VFR]  
VFR
  [VFR]  
VFR VFR VFR VFR VFR VFR VFR VFR VFR VFR
WX -- --
  [--]  
--
  [--]  
--
  [--]  
-- -- -- -- -- -- -- -- -- --
WDir 180 210
[210]
210
[210]
210
[210]
210 210 240 240 240 240 240 240 240 240
WSpd 15 12
  [12]  
12
  [12]  
12
  [12]  
12 12 5 5 5 5 5 5 5 5
WGst -- --
  [--]  
--
  [--]  
--
  [--]  
-- -- -- -- -- -- -- -- -- --
Raw TAF
KTPA 011437Z 0115/0218 17007KT P6SM SCT020 SCT250
  FM011700 21012KT P6SM SCT040 SCT250
  TEMPO 0117/0121 BKN040
  FM012300 24005KT P6SM SCT050 SCT250


Raw METAR
KTPA 011653Z 18015KT 10SM FEW024 SCT035 28/21 A3011 RMK AO2 SLP196 T02780211
KTPA 011553Z 18007KT 10SM FEW030 26/21 A3012 RMK AO2 SLP200 T02560211
KTPA 011453Z 19009KT 10SM SCT028 25/21 A3012 RMK AO2 SLP200 T02500211 51012 $

METAR Board
Radar Display
Forecast Discussion
For situational awareness. Not to be used for flight planning purposes.